Time;durP1;ratioP1;P1;durP2;ratioP2;P2;SDS_P1;SDS_P2;PMS_P1;PMS_P2;Temp;Humidity;BMP_temperature;BMP_pressure;BME280_temperature;BME280_humidity;BME280_pressure;Samples;Min_cycle;Max_cycle;Signal;HPM_P1;HPM_P2
2022/04/08 00:02:06;;;;;;;0.60;0.50;;;19.90;51.30;;;;;;5014821;28;20188;-67
2022/04/08 00:04:32;;;;;;;1.42;0.65;;;19.90;51.20;;;;;;4998726;28;20184;-68
2022/04/08 00:07:02;;;;;;;1.38;0.70;;;19.90;51.20;;;;;;5014815;28;20192;-67
2022/04/08 00:09:28;;;;;;;0.75;0.57;;;19.80;51.10;;;;;;4998429;28;20200;-68
2022/04/08 00:11:55;;;;;;;1.05;0.70;;;19.90;51.20;;;;;;4998569;28;20678;-67
2022/04/08 00:14:21;;;;;;;0.75;0.57;;;19.90;51.20;;;;;;4998718;28;20195;-68
2022/04/08 00:16:47;;;;;;;0.95;0.47;;;19.90;51.20;;;;;;4998590;28;20238;-68
2022/04/08 00:19:14;;;;;;;0.70;0.52;;;19.80;51.10;;;;;;5014422;28;20212;-67
2022/04/08 00:21:40;;;;;;;1.30;0.80;;;19.80;51.10;;;;;;5015422;28;20188;-67
2022/04/08 00:24:07;;;;;;;1.02;0.60;;;19.90;51.20;;;;;;5014780;28;20180;-68
2022/04/08 00:26:33;;;;;;;1.55;0.55;;;19.90;51.20;;;;;;5014693;28;20183;-67
2022/04/08 00:28:59;;;;;;;1.80;0.80;;;19.90;51.20;;;;;;5014465;28;20208;-68
2022/04/08 00:31:25;;;;;;;0.98;0.77;;;19.90;51.20;;;;;;5014609;28;20183;-66
2022/04/08 00:33:51;;;;;;;2.40;0.77;;;19.90;51.20;;;;;;5030729;28;20190;-68
2022/04/08 00:36:17;;;;;;;1.20;0.55;;;19.80;51.10;;;;;;5014537;28;20192;-68
2022/04/08 00:38:42;;;;;;;0.77;0.73;;;19.90;51.20;;;;;;5014262;28;20204;-68
2022/04/08 00:41:08;;;;;;;1.25;0.73;;;19.80;51.20;;;;;;5014113;28;20203;-68
2022/04/08 00:43:38;;;;;;;2.03;1.05;;;19.90;51.20;;;;;;5014264;28;20184;-67
2022/04/08 00:46:07;;;;;;;1.52;0.73;;;19.80;51.20;;;;;;4997688;28;20191;-68
2022/04/08 00:48:33;;;;;;;1.30;0.80;;;19.80;51.10;;;;;;5014188;28;20251;-67
2022/04/08 00:51:00;;;;;;;0.60;0.50;;;19.80;51.10;;;;;;5014097;28;20300;-68
2022/04/08 00:53:28;;;;;;;1.52;1.00;;;19.80;51.10;;;;;;5013754;28;20679;-67
2022/04/08 00:55:55;;;;;;;1.13;0.77;;;19.80;51.10;;;;;;5015480;28;20184;-68
2022/04/08 00:58:21;;;;;;;1.50;0.70;;;19.80;51.20;;;;;;4997668;28;20198;-68
2022/04/08 01:00:47;;;;;;;1.65;0.80;;;19.80;51.20;;;;;;5014116;28;20287;-68
2022/04/08 01:03:13;;;;;;;0.77;0.77;;;19.80;51.10;;;;;;5013861;28;20283;-67
2022/04/08 01:05:39;;;;;;;0.70;0.50;;;19.80;51.10;;;;;;4997696;28;20237;-67
2022/04/08 01:08:12;;;;;;;1.55;0.80;;;19.90;51.20;;;;;;5013750;28;20184;-68
2022/04/08 01:10:42;;;;;;;1.73;0.80;;;19.80;51.10;;;;;;4997351;28;20212;-68
2022/04/08 01:13:08;;;;;;;0.95;0.70;;;19.90;51.20;;;;;;5013370;28;20192;-68
2022/04/08 01:15:34;;;;;;;1.30;0.75;;;19.80;51.10;;;;;;5013739;28;20187;-68
2022/04/08 01:18:01;;;;;;;1.17;0.70;;;19.80;51.20;;;;;;5014841;28;20255;-68
2022/04/08 01:20:26;;;;;;;0.55;0.55;;;19.80;51.10;;;;;;5014778;28;20218;-68
2022/04/08 01:22:52;;;;;;;1.90;0.70;;;19.80;51.10;;;;;;5029981;28;20192;-68
2022/04/08 01:25:18;;;;;;;1.58;0.80;;;19.80;51.10;;;;;;4996759;28;20184;-68
2022/04/08 01:27:43;;;;;;;1.73;0.73;;;19.80;51.10;;;;;;5029813;28;20184;-67
2022/04/08 01:30:16;;;;;;;1.55;0.88;;;19.80;51.10;;;;;;5013081;28;20719;-67
2022/04/08 01:32:42;;;;;;;1.55;1.00;;;19.80;51.00;;;;;;4997063;28;20548;-67
2022/04/08 01:35:08;;;;;;;0.73;0.65;;;19.80;51.00;;;;;;5013123;28;20207;-66
2022/04/08 01:37:34;;;;;;;1.38;0.77;;;19.80;51.00;;;;;;5013114;28;20195;-68
2022/04/08 01:40:00;;;;;;;1.38;0.80;;;19.80;51.00;;;;;;5012727;28;20227;-68
2022/04/08 01:42:26;;;;;;;1.35;0.57;;;19.80;50.90;;;;;;5014131;28;20180;-68
2022/04/08 01:44:53;;;;;;;1.42;0.80;;;19.80;50.90;;;;;;5012904;28;20187;-68
2022/04/08 01:47:20;;;;;;;1.95;0.93;;;19.80;50.90;;;;;;5012907;28;20180;-68
2022/04/08 01:49:46;;;;;;;1.20;0.52;;;19.80;50.90;;;;;;5012863;28;20208;-67
2022/04/08 01:52:12;;;;;;;1.98;0.90;;;19.80;50.90;;;;;;5012675;28;20238;-68
2022/04/08 01:54:39;;;;;;;1.05;0.75;;;19.80;50.90;;;;;;5029428;28;20188;-68
2022/04/08 01:57:05;;;;;;;1.25;0.73;;;19.80;50.90;;;;;;5029209;28;20218;-67
2022/04/08 01:59:30;;;;;;;0.70;0.70;;;19.80;50.80;;;;;;5012370;28;20243;-68
2022/04/08 02:01:59;;;;;;;1.10;0.90;;;19.80;50.90;;;;;;5012288;28;20199;-67
2022/04/08 02:04:26;;;;;;;0.93;0.70;;;19.80;50.90;;;;;;5012546;28;20192;-68
2022/04/08 02:06:52;;;;;;;0.85;0.73;;;19.80;50.80;;;;;;5012570;28;20243;-67
2022/04/08 02:09:18;;;;;;;1.45;0.70;;;19.80;50.90;;;;;;5012169;28;20346;-67
2022/04/08 02:11:45;;;;;;;1.45;0.70;;;19.80;50.80;;;;;;5012368;28;20195;-67
2022/04/08 02:14:11;;;;;;;1.02;0.77;;;19.80;50.80;;;;;;5013709;28;20180;-68
2022/04/08 02:16:37;;;;;;;1.38;0.88;;;19.80;50.80;;;;;;5028886;28;20188;-68
2022/04/08 02:19:03;;;;;;;0.90;0.60;;;19.80;50.80;;;;;;5012004;28;20214;-67
2022/04/08 02:21:29;;;;;;;1.33;0.73;;;19.80;50.80;;;;;;4995960;28;20196;-68
2022/04/08 02:23:55;;;;;;;1.50;0.88;;;19.80;50.80;;;;;;4995996;28;20188;-67
2022/04/08 02:26:21;;;;;;;1.52;0.63;;;19.80;50.80;;;;;;5012411;28;20199;-67
2022/04/08 02:28:47;;;;;;;2.05;0.68;;;19.80;50.80;;;;;;4996110;28;20212;-68
2022/04/08 02:31:13;;;;;;;2.10;0.93;;;19.80;50.70;;;;;;5028858;28;20188;-68
2022/04/08 02:33:39;;;;;;;1.40;0.70;;;19.80;50.70;;;;;;4995715;28;20192;-68
2022/04/08 02:36:08;;;;;;;1.33;0.82;;;19.80;50.70;;;;;;5012221;28;20187;-68
2022/04/08 02:38:33;;;;;;;0.93;0.68;;;19.80;50.70;;;;;;5012008;28;20199;-67
2022/04/08 02:40:59;;;;;;;1.52;0.90;;;19.80;50.60;;;;;;5063022;23;20233;-69
2022/04/08 02:43:25;;;;;;;1.85;0.82;;;19.70;50.60;;;;;;5034626;28;20261;-69
2022/04/08 02:45:53;;;;;;;1.00;0.88;;;19.80;50.60;;;;;;5052696;28;20667;-68
2022/04/08 02:48:19;;;;;;;1.67;0.65;;;19.80;50.70;;;;;;5036841;28;20252;-69
2022/04/08 02:50:45;;;;;;;2.80;0.70;;;19.70;50.60;;;;;;5052612;28;20205;-68
2022/04/08 02:53:11;;;;;;;1.60;0.63;;;19.80;50.60;;;;;;5071493;28;20280;-68
2022/04/08 02:55:37;;;;;;;0.95;0.73;;;19.80;50.60;;;;;;5054923;28;20174;-68
2022/04/08 02:58:03;;;;;;;1.95;0.70;;;19.70;50.60;;;;;;5054593;28;20182;-68
2022/04/08 03:00:30;;;;;;;1.15;0.70;;;19.70;50.60;;;;;;5037901;28;20246;-69
2022/04/08 03:02:56;;;;;;;0.82;0.60;;;19.70;50.50;;;;;;5070775;28;20185;-68
2022/04/08 03:05:22;;;;;;;1.35;0.77;;;19.70;50.60;;;;;;5054811;28;20181;-69
2022/04/08 03:07:48;;;;;;;0.88;0.50;;;19.70;50.50;;;;;;5054413;28;20265;-68
2022/04/08 03:10:14;;;;;;;0.98;0.88;;;19.70;50.50;;;;;;5054421;28;20284;-69
2022/04/08 03:12:40;;;;;;;1.75;0.50;;;19.70;50.50;;;;;;5054275;28;20645;-68
2022/04/08 03:15:07;;;;;;;0.90;0.70;;;19.80;50.50;;;;;;5037134;28;20241;-68
2022/04/08 03:17:36;;;;;;;1.17;0.70;;;19.70;51.10;;;;;;5054367;28;20205;-69
2022/04/08 03:20:04;;;;;;;1.15;0.80;;;19.70;50.50;;;;;;5054285;28;20219;-68
2022/04/08 03:22:30;;;;;;;1.13;0.82;;;19.70;50.50;;;;;;5037667;28;20193;-68
2022/04/08 03:24:55;;;;;;;1.40;0.68;;;19.70;50.40;;;;;;5054518;28;20185;-68
2022/04/08 03:27:21;;;;;;;1.17;0.70;;;19.70;50.40;;;;;;5040150;28;20182;-69
2022/04/08 03:29:50;;;;;;;1.20;0.70;;;19.80;50.50;;;;;;5034609;28;20203;-68
2022/04/08 03:32:16;;;;;;;1.13;0.68;;;19.70;50.30;;;;;;5034216;28;20252;-68
2022/04/08 03:34:42;;;;;;;0.73;0.73;;;19.70;50.40;;;;;;5052170;28;20182;-68
2022/04/08 03:37:09;;;;;;;1.70;0.90;;;19.70;50.40;;;;;;5051864;28;20236;-68
2022/04/08 03:39:35;;;;;;;1.67;0.63;;;19.70;50.40;;;;;;5033982;28;20305;-69
2022/04/08 03:42:00;;;;;;;1.60;0.88;;;19.70;50.40;;;;;;5052017;28;20262;-68
2022/04/08 03:44:26;;;;;;;0.95;0.68;;;19.70;50.40;;;;;;5050916;28;20175;-68
2022/04/08 03:46:52;;;;;;;1.13;0.60;;;19.70;50.40;;;;;;5034321;28;20179;-68
2022/04/08 03:49:18;;;;;;;1.42;0.60;;;19.70;50.40;;;;;;5034408;28;20183;-68
2022/04/08 03:51:46;;;;;;;0.88;0.70;;;19.70;50.40;;;;;;5034288;28;20197;-68
2022/04/08 03:54:12;;;;;;;1.23;0.57;;;19.70;50.30;;;;;;5034351;28;20381;-68
2022/04/08 03:56:42;;;;;;;1.75;0.80;;;19.70;50.40;;;;;;5051937;28;20197;-68
2022/04/08 03:59:08;;;;;;;0.93;0.55;;;19.70;50.40;;;;;;5033972;28;20214;-68
2022/04/08 04:01:35;;;;;;;1.73;0.68;;;19.70;50.30;;;;;;5034314;28;20202;-68
2022/04/08 04:04:03;;;;;;;1.55;0.68;;;19.70;50.30;;;;;;5050660;28;20179;-68
2022/04/08 04:06:28;;;;;;;1.63;0.60;;;19.70;50.30;;;;;;5034076;28;20193;-69
2022/04/08 04:08:54;;;;;;;1.27;0.70;;;19.70;50.30;;;;;;5067386;28;20171;-69
2022/04/08 04:11:20;;;;;;;1.05;0.50;;;19.70;50.30;;;;;;5045869;28;20207;-69
2022/04/08 04:13:46;;;;;;;1.42;0.68;;;19.70;50.30;;;;;;5031652;28;20175;-69
2022/04/08 04:16:12;;;;;;;0.93;0.70;;;19.70;50.30;;;;;;5032070;28;20183;-68
2022/04/08 04:18:38;;;;;;;2.20;0.85;;;19.70;50.20;;;;;;5014177;28;20196;-68
2022/04/08 04:21:04;;;;;;;2.22;0.60;;;19.70;50.20;;;;;;5014335;28;20218;-68
2022/04/08 04:23:33;;;;;;;0.70;0.70;;;19.70;50.90;;;;;;5014186;28;20191;-68
2022/04/08 04:26:00;;;;;;;1.02;0.70;;;19.70;50.20;;;;;;5037408;28;20185;-68
2022/04/08 04:28:30;;;;;;;1.00;0.80;;;19.70;50.20;;;;;;5055502;28;20178;-68
2022/04/08 04:30:59;;;;;;;0.65;0.50;;;19.70;50.20;;;;;;5037047;28;20208;-69
2022/04/08 04:33:26;;;;;;;1.73;0.75;;;19.70;50.20;;;;;;5055143;28;20189;-68
2022/04/08 04:35:52;;;;;;;0.88;0.68;;;19.70;50.30;;;;;;5053917;28;20208;-69
2022/04/08 04:38:18;;;;;;;1.42;0.50;;;19.70;50.20;;;;;;5020789;28;20179;-69
2022/04/08 04:40:43;;;;;;;0.88;0.50;;;19.70;50.20;;;;;;5037307;28;20241;-69
2022/04/08 04:43:09;;;;;;;1.30;0.65;;;19.70;50.20;;;;;;5055201;28;20210;-69
2022/04/08 04:45:37;;;;;;;0.95;0.60;;;19.70;50.20;;;;;;5020921;28;20175;-69
2022/04/08 04:48:05;;;;;;;1.25;0.60;;;19.70;50.20;;;;;;5037069;28;20197;-69
2022/04/08 04:50:31;;;;;;;1.50;0.88;;;19.70;50.20;;;;;;5037148;28;20236;-69
2022/04/08 04:52:57;;;;;;;0.93;0.70;;;19.70;50.20;;;;;;5037047;28;20219;-69
2022/04/08 04:55:23;;;;;;;1.60;0.80;;;19.70;50.20;;;;;;5054871;28;20661;-68
2022/04/08 04:57:49;;;;;;;1.00;0.90;;;19.70;50.30;;;;;;5054863;28;20182;-69
2022/04/08 05:00:16;;;;;;;1.15;0.70;;;19.70;50.20;;;;;;5036788;28;20218;-68
2022/04/08 05:02:43;;;;;;;0.88;0.70;;;19.70;50.20;;;;;;5037076;28;20186;-69
2022/04/08 05:05:09;;;;;;;1.45;0.90;;;19.70;50.20;;;;;;5036709;28;20674;-68
2022/04/08 05:07:35;;;;;;;1.00;0.68;;;19.70;50.20;;;;;;5020213;28;20182;-68
2022/04/08 05:10:05;;;;;;;1.10;0.90;;;19.70;50.20;;;;;;5053362;28;20210;-69
2022/04/08 05:12:31;;;;;;;1.75;0.80;;;19.60;50.20;;;;;;5036447;28;20672;-69
2022/04/08 05:14:56;;;;;;;1.73;0.63;;;19.70;50.20;;;;;;5036107;28;20179;-68
2022/04/08 05:17:22;;;;;;;1.58;0.73;;;19.70;50.20;;;;;;5036494;28;20194;-68
2022/04/08 05:19:48;;;;;;;1.88;1.02;;;19.70;50.20;;;;;;5052930;28;20279;-69
2022/04/08 05:22:15;;;;;;;2.20;0.90;;;19.60;50.70;;;;;;5036079;28;20191;-68
2022/04/08 05:24:41;;;;;;;1.17;0.75;;;19.60;50.00;;;;;;5053075;28;20179;-68
2022/04/08 05:27:06;;;;;;;1.85;0.77;;;19.60;50.20;;;;;;5036066;28;20613;-68
2022/04/08 05:29:33;;;;;;;1.65;0.65;;;19.70;50.20;;;;;;5019661;28;20214;-69
2022/04/08 05:31:58;;;;;;;0.75;0.70;;;19.60;50.20;;;;;;5054400;28;20193;-69
2022/04/08 05:34:27;;;;;;;1.02;0.60;;;19.60;50.10;;;;;;5053956;28;20174;-68
2022/04/08 05:36:53;;;;;;;1.17;0.82;;;19.70;50.20;;;;;;5053404;28;20191;-69
2022/04/08 05:39:19;;;;;;;1.33;0.82;;;19.60;50.20;;;;;;5053571;28;20675;-69
2022/04/08 05:41:44;;;;;;;1.25;0.70;;;19.60;50.10;;;;;;5036035;28;20174;-68
2022/04/08 05:44:10;;;;;;;0.82;0.70;;;19.60;50.20;;;;;;5035750;28;20186;-69
2022/04/08 05:46:36;;;;;;;1.58;0.80;;;19.70;50.20;;;;;;5052559;28;20178;-68
2022/04/08 05:49:02;;;;;;;1.15;0.90;;;19.60;50.20;;;;;;5053859;28;20182;-68
2022/04/08 05:51:28;;;;;;;1.48;0.80;;;19.60;50.10;;;;;;5036205;28;20301;-68
2022/04/08 05:53:54;;;;;;;1.73;0.65;;;19.60;50.20;;;;;;5053756;28;20273;-68
2022/04/08 05:56:20;;;;;;;1.23;0.80;;;19.70;50.20;;;;;;5035883;28;20187;-69
2022/04/08 05:58:45;;;;;;;0.70;0.60;;;19.60;50.10;;;;;;5052701;28;20237;-68
2022/04/08 06:01:11;;;;;;;1.20;0.80;;;19.70;50.20;;;;;;5044960;28;20225;-68
2022/04/08 06:03:37;;;;;;;1.23;0.73;;;19.70;50.20;;;;;;5035533;28;20197;-68
2022/04/08 06:06:04;;;;;;;0.85;0.70;;;19.60;50.10;;;;;;5035611;28;20669;-68
2022/04/08 06:08:30;;;;;;;1.40;0.82;;;19.70;50.20;;;;;;5035721;28;20179;-69
2022/04/08 06:10:56;;;;;;;2.63;0.90;;;19.60;50.10;;;;;;5044396;28;20206;-68
2022/04/08 06:13:24;;;;;;;1.13;0.80;;;19.70;50.20;;;;;;5051931;28;20243;-68
2022/04/08 06:15:53;;;;;;;1.08;0.75;;;19.70;50.20;;;;;;5053246;28;20183;-68
2022/04/08 06:18:19;;;;;;;3.67;0.75;;;19.60;50.00;;;;;;5052349;28;20194;-68
2022/04/08 06:20:46;;;;;;;1.90;0.80;;;19.60;50.10;;;;;;5052728;28;20214;-68
2022/04/08 06:23:12;;;;;;;1.00;0.70;;;19.70;50.10;;;;;;5053089;28;20180;-68
2022/04/08 06:25:38;;;;;;;0.95;0.77;;;19.60;50.00;;;;;;5035090;28;20191;-69
2022/04/08 06:28:06;;;;;;;1.80;0.77;;;19.60;50.10;;;;;;5051772;28;20193;-68
2022/04/08 06:30:36;;;;;;;1.23;0.80;;;19.60;50.10;;;;;;5035211;28;20225;-69
2022/04/08 06:33:05;;;;;;;0.77;0.60;;;19.60;50.20;;;;;;5052713;28;20205;-69
2022/04/08 06:35:32;;;;;;;1.05;0.70;;;19.60;50.10;;;;;;5035038;28;20194;-69
2022/04/08 06:38:04;;;;;;;1.83;0.98;;;19.60;50.10;;;;;;5034962;28;20270;-68
2022/04/08 06:40:32;;;;;;;1.27;0.85;;;19.60;50.20;;;;;;5040445;28;20301;-68
2022/04/08 06:43:00;;;;;;;1.60;0.95;;;19.60;50.10;;;;;;5051302;28;20186;-68
2022/04/08 06:45:26;;;;;;;1.70;1.10;;;19.60;50.10;;;;;;5051531;28;20193;-69
2022/04/08 06:47:54;;;;;;;0.90;0.70;;;19.70;50.20;;;;;;5053450;28;20273;-68
2022/04/08 06:50:20;;;;;;;1.63;0.85;;;19.70;50.20;;;;;;5050380;28;20264;-68
2022/04/08 06:52:47;;;;;;;1.45;0.70;;;19.70;50.20;;;;;;5051283;28;20182;-68
2022/04/08 06:55:13;;;;;;;1.90;0.70;;;19.60;50.10;;;;;;5051387;28;20190;-69
2022/04/08 06:57:41;;;;;;;1.27;0.65;;;19.60;50.10;;;;;;5051267;28;20185;-69
2022/04/08 07:00:10;;;;;;;1.00;0.73;;;19.60;50.10;;;;;;5045246;28;20219;-68
2022/04/08 07:02:36;;;;;;;1.02;0.90;;;19.60;50.10;;;;;;5033686;28;20689;-68
2022/04/08 07:05:03;;;;;;;1.10;0.80;;;19.60;50.00;;;;;;5018211;28;20278;-68
2022/04/08 07:07:32;;;;;;;1.83;0.80;;;19.60;50.00;;;;;;5052178;28;20745;-69
2022/04/08 07:09:58;;;;;;;0.95;0.80;;;19.60;50.00;;;;;;5052107;28;20245;-69
2022/04/08 07:12:28;;;;;;;0.95;0.68;;;19.60;50.10;;;;;;5034026;28;20198;-68
2022/04/08 07:14:54;;;;;;;3.40;1.10;;;19.70;50.20;;;;;;5033015;28;20186;-69
2022/04/08 07:17:32;;;;;;;1.17;0.80;;;19.60;50.00;;;;;;5034448;28;20281;-69
2022/04/08 07:19:59;;;;;;;0.65;0.50;;;19.70;50.10;;;;;;5029591;28;20218;-68
2022/04/08 07:22:25;;;;;;;1.27;0.77;;;19.60;50.00;;;;;;5014741;28;20191;-68
2022/04/08 07:24:53;;;;;;;1.17;0.77;;;19.60;50.00;;;;;;4998320;28;20182;-69
2022/04/08 07:27:20;;;;;;;1.70;0.70;;;19.70;50.10;;;;;;5043905;28;20194;-68
2022/04/08 07:29:48;;;;;;;0.63;0.60;;;19.70;50.10;;;;;;5034023;28;20672;-69
2022/04/08 07:32:20;;;;;;;0.90;0.80;;;19.70;50.20;;;;;;5051293;28;20193;-69
2022/04/08 07:34:51;;;;;;;1.10;0.70;;;19.60;50.00;;;;;;5034388;28;20253;-68
2022/04/08 07:37:31;;;;;;;1.00;0.70;;;19.60;50.00;;;;;;5034187;28;20538;-68
2022/04/08 07:39:58;;;;;;;0.77;0.70;;;19.60;50.00;;;;;;5034010;28;20214;-69
2022/04/08 07:42:27;;;;;;;0.63;0.55;;;19.60;50.00;;;;;;5017445;28;20191;-68
2022/04/08 07:44:53;;;;;;;1.45;0.80;;;19.70;50.10;;;;;;5034169;28;20197;-68
2022/04/08 07:47:20;;;;;;;1.10;0.73;;;19.70;50.10;;;;;;5017756;28;20340;-68
2022/04/08 07:49:49;;;;;;;1.92;0.52;;;19.70;50.10;;;;;;5050571;28;20344;-68
2022/04/08 07:52:15;;;;;;;1.48;0.82;;;19.70;50.10;;;;;;5051791;28;20216;-68
2022/04/08 07:54:43;;;;;;;0.73;0.60;;;19.70;50.10;;;;;;5050857;28;20195;-68
2022/04/08 07:57:12;;;;;;;0.88;0.70;;;19.70;50.10;;;;;;5050867;28;20204;-68
2022/04/08 07:59:37;;;;;;;1.23;0.90;;;19.70;50.10;;;;;;5051541;28;20259;-69
2022/04/08 08:02:03;;;;;;;0.73;0.50;;;19.70;50.10;;;;;;5037251;28;20190;-68
2022/04/08 08:04:29;;;;;;;1.17;0.60;;;19.70;50.10;;;;;;5037680;28;20183;-68
2022/04/08 08:06:55;;;;;;;0.60;0.60;;;19.70;50.10;;;;;;5038227;28;20238;-69
2022/04/08 08:09:20;;;;;;;1.77;0.70;;;19.70;50.10;;;;;;5054333;28;20182;-68
2022/04/08 08:11:47;;;;;;;0.90;0.60;;;19.70;50.10;;;;;;5055424;28;20187;-69
2022/04/08 08:14:13;;;;;;;0.55;0.50;;;19.70;50.10;;;;;;5054614;28;20194;-68
2022/04/08 08:16:39;;;;;;;1.58;0.80;;;19.70;50.10;;;;;;5054750;28;20182;-68
2022/04/08 08:19:04;;;;;;;0.70;0.65;;;19.70;50.10;;;;;;5053789;28;20182;-68
2022/04/08 08:21:30;;;;;;;0.70;0.70;;;19.70;50.00;;;;;;5051201;28;20276;-69
2022/04/08 08:23:56;;;;;;;1.17;0.60;;;19.70;50.00;;;;;;5054020;28;20621;-69
2022/04/08 08:26:22;;;;;;;1.20;0.80;;;19.70;50.00;;;;;;5050732;28;20175;-68
2022/04/08 08:28:47;;;;;;;0.40;0.40;;;19.70;50.00;;;;;;5017995;28;20183;-68
2022/04/08 08:31:16;;;;;;;0.70;0.70;;;19.70;50.10;;;;;;5055760;28;20202;-68
2022/04/08 08:33:43;;;;;;;0.70;0.63;;;19.70;50.00;;;;;;5055167;28;20190;-68
2022/04/08 08:36:09;;;;;;;0.73;0.70;;;19.70;50.00;;;;;;5054151;28;20182;-68
2022/04/08 08:38:35;;;;;;;0.60;0.60;;;19.70;50.10;;;;;;5055160;28;20567;-67
2022/04/08 08:41:02;;;;;;;0.82;0.70;;;19.70;50.10;;;;;;5058598;22;20607;-67
2022/04/08 08:43:28;;;;;;;0.68;0.68;;;19.70;50.00;;;;;;5033486;28;20651;-67
2022/04/08 08:45:57;;;;;;;1.15;0.70;;;19.70;50.00;;;;;;5042557;28;20249;-67
2022/04/08 08:48:23;;;;;;;1.25;0.82;;;19.70;50.00;;;;;;5037309;28;20197;-67
2022/04/08 08:50:54;;;;;;;0.75;0.70;;;19.70;50.00;;;;;;5038398;28;20215;-67
2022/04/08 08:53:20;;;;;;;1.05;0.70;;;19.70;50.10;;;;;;5013962;28;20279;-68
2022/04/08 08:55:49;;;;;;;0.50;0.50;;;19.70;50.00;;;;;;5031917;28;20190;-67
2022/04/08 08:58:16;;;;;;;0.60;0.40;;;19.70;50.00;;;;;;5017411;28;20333;-68
2022/04/08 09:00:42;;;;;;;0.57;0.57;;;19.70;50.00;;;;;;5022797;28;20211;-68
2022/04/08 09:03:09;;;;;;;0.70;0.50;;;19.70;50.00;;;;;;5013664;28;20176;-68
2022/04/08 09:05:45;;;;;;;0.57;0.57;;;19.70;50.00;;;;;;5013802;28;20195;-68
2022/04/08 09:08:15;;;;;;;0.60;0.60;;;19.70;50.00;;;;;;4997489;28;20175;-68
2022/04/08 09:10:46;;;;;;;0.60;0.60;;;19.70;50.00;;;;;;5013351;28;20234;-68
2022/04/08 09:13:18;;;;;;;0.93;0.70;;;19.70;50.00;;;;;;5012398;28;20184;-67
2022/04/08 09:15:59;;;;;;;0.82;0.50;;;19.70;50.00;;;;;;5013475;28;20196;-67
2022/04/08 09:18:32;;;;;;;0.57;0.57;;;19.70;50.00;;;;;;5013731;28;20172;-67
2022/04/08 09:20:58;;;;;;;1.75;0.70;;;19.70;50.00;;;;;;5013238;28;20227;-67
2022/04/08 09:23:25;;;;;;;1.42;0.63;;;19.70;50.00;;;;;;5013334;28;20185;-68
2022/04/08 09:26:05;;;;;;;0.57;0.57;;;19.70;50.00;;;;;;5013340;28;20184;-67
2022/04/08 09:28:38;;;;;;;0.65;0.57;;;19.70;50.00;;;;;;4997179;28;20187;-67
2022/04/08 09:31:05;;;;;;;0.80;0.75;;;19.80;50.00;;;;;;5013045;28;20215;-68
2022/04/08 09:33:32;;;;;;;1.48;0.57;;;19.80;50.10;;;;;;5029865;28;20219;-67
2022/04/08 09:35:59;;;;;;;0.75;0.63;;;19.80;50.00;;;;;;5013429;28;20287;-67
2022/04/08 09:38:29;;;;;;;1.15;0.85;;;19.80;50.00;;;;;;5029640;28;20267;-67
2022/04/08 09:41:06;;;;;;;0.60;0.60;;;19.80;50.00;;;;;;5045926;28;20261;-67
2022/04/08 09:43:37;;;;;;;0.80;0.80;;;19.80;50.00;;;;;;5013393;28;20184;-67
2022/04/08 09:46:18;;;;;;;0.57;0.52;;;19.80;50.00;;;;;;5013271;28;20172;-67
2022/04/08 09:48:45;;;;;;;1.75;0.70;;;19.80;50.00;;;;;;5013162;28;20180;-67
2022/04/08 09:51:20;;;;;;;0.70;0.70;;;19.70;50.00;;;;;;5012872;28;20215;-67
2022/04/08 09:53:55;;;;;;;0.82;0.77;;;19.80;50.10;;;;;;5012828;28;20172;-67
2022/04/08 09:56:24;;;;;;;0.60;0.60;;;19.70;50.00;;;;;;5013212;28;20211;-67
2022/04/08 09:59:15;;;;;;;0.75;0.60;;;19.80;50.10;;;;;;5012948;28;20191;-67
2022/04/08 10:01:44;;;;;;;0.75;0.75;;;19.80;50.10;;;;;;5012590;28;20212;-67
2022/04/08 10:04:11;;;;;;;0.73;0.70;;;19.80;50.10;;;;;;5012729;28;20216;-67
2022/04/08 10:06:39;;;;;;;0.70;0.70;;;19.80;50.10;;;;;;5013037;28;20196;-67
2022/04/08 10:09:10;;;;;;;1.00;0.80;;;19.80;50.10;;;;;;5013821;28;20180;-67
2022/04/08 10:12:09;;;;;;;0.57;0.50;;;19.80;50.10;;;;;;5012193;28;20596;-67
2022/04/08 10:15:03;;;;;;;1.83;0.80;;;19.80;50.10;;;;;;5012737;28;20180;-66
2022/04/08 10:17:29;;;;;;;0.60;0.60;;;19.80;50.10;;;;;;5012706;28;20199;-68
2022/04/08 10:20:25;;;;;;;0.50;0.50;;;19.80;50.10;;;;;;5012157;28;20208;-67
2022/04/08 10:22:52;;;;;;;1.20;0.77;;;19.80;50.10;;;;;;5013434;28;20199;-67
2022/04/08 10:25:20;;;;;;;0.95;0.80;;;19.80;50.20;;;;;;5013422;28;20176;-67
2022/04/08 10:27:46;;;;;;;0.82;0.70;;;19.80;50.10;;;;;;5012501;28;20330;-68
2022/04/08 10:30:21;;;;;;;0.60;0.60;;;19.70;50.10;;;;;;5012073;28;20305;-68
2022/04/08 10:33:03;;;;;;;1.17;0.65;;;19.80;50.30;;;;;;5012366;28;20675;-68
2022/04/08 10:35:30;;;;;;;1.10;0.80;;;19.80;50.40;;;;;;5012506;28;20203;-66
2022/04/08 10:38:05;;;;;;;0.73;0.70;;;19.80;50.40;;;;;;5028630;28;20184;-67
2022/04/08 10:40:36;;;;;;;0.98;0.70;;;19.80;50.40;;;;;;5011803;28;20243;-68
2022/04/08 10:43:13;;;;;;;0.65;0.60;;;19.80;50.50;;;;;;5011755;28;20197;-67
2022/04/08 10:45:39;;;;;;;0.70;0.70;;;19.80;50.40;;;;;;5012388;28;20188;-66
2022/04/08 10:48:10;;;;;;;1.02;0.63;;;19.80;50.40;;;;;;5012172;28;20188;-67
2022/04/08 10:50:39;;;;;;;0.60;0.60;;;19.80;50.50;;;;;;5011934;28;20218;-67
2022/04/08 10:53:14;;;;;;;2.42;0.70;;;19.70;50.40;;;;;;5011491;28;20184;-67
2022/04/08 10:55:50;;;;;;;0.60;0.60;;;19.80;50.50;;;;;;5019829;28;20192;-67
2022/04/08 10:58:51;;;;;;;0.95;0.80;;;19.80;50.50;;;;;;5011887;28;20180;-67
2022/04/08 11:01:27;;;;;;;1.45;0.60;;;19.80;50.50;;;;;;4990734;28;20234;-69
2022/04/08 11:04:00;;;;;;;0.68;0.68;;;19.80;50.50;;;;;;5010277;28;20268;-67
2022/04/08 11:06:29;;;;;;;0.88;0.65;;;19.80;50.50;;;;;;5012059;28;20195;-67
2022/04/08 11:08:55;;;;;;;0.90;0.70;;;19.80;50.50;;;;;;5011541;28;20215;-67
2022/04/08 11:11:32;;;;;;;0.80;0.70;;;19.80;50.50;;;;;;5027612;28;20274;-67
2022/04/08 11:14:01;;;;;;;0.68;0.50;;;19.80;50.50;;;;;;5011492;28;20334;-67
2022/04/08 11:16:32;;;;;;;0.60;0.60;;;19.80;50.50;;;;;;5028259;28;20184;-67
2022/04/08 11:18:59;;;;;;;2.53;0.70;;;19.80;50.50;;;;;;5028492;28;20179;-68
2022/04/08 11:21:28;;;;;;;0.73;0.70;;;19.80;50.60;;;;;;5006531;28;20214;-67
2022/04/08 11:24:03;;;;;;;1.00;0.90;;;19.80;50.50;;;;;;5010357;28;20188;-67
2022/04/08 11:26:39;;;;;;;1.95;0.70;;;19.80;50.60;;;;;;5011779;28;20193;-68
2022/04/08 11:29:23;;;;;;;2.92;0.88;;;19.80;50.60;;;;;;5011721;28;20222;-67
2022/04/08 11:32:06;;;;;;;0.93;0.50;;;19.80;50.60;;;;;;5012454;28;20195;-67
2022/04/08 11:34:32;;;;;;;1.05;0.50;;;19.70;50.50;;;;;;5031610;28;20199;-67
2022/04/08 11:36:57;;;;;;;0.75;0.70;;;19.80;50.60;;;;;;5043437;28;20184;-67
2022/04/08 11:39:24;;;;;;;1.70;0.50;;;19.80;50.60;;;;;;5027974;28;20191;-67
2022/04/08 11:41:56;;;;;;;0.50;0.50;;;19.80;50.60;;;;;;5011349;28;20191;-67
2022/04/08 11:44:23;;;;;;;1.08;0.60;;;19.80;50.60;;;;;;5011274;28;20176;-67
2022/04/08 11:46:50;;;;;;;0.90;0.70;;;19.80;50.60;;;;;;5011376;28;20188;-66
2022/04/08 11:49:17;;;;;;;0.73;0.73;;;19.80;51.20;;;;;;5011298;28;20274;-67
2022/04/08 11:51:45;;;;;;;0.60;0.60;;;19.80;50.60;;;;;;5027565;28;20207;-67
2022/04/08 11:54:11;;;;;;;0.60;0.60;;;19.80;50.60;;;;;;5022894;28;20184;-67
2022/04/08 11:56:37;;;;;;;0.82;0.57;;;19.80;50.70;;;;;;5032205;28;20182;-67
2022/04/08 11:59:08;;;;;;;0.82;0.50;;;19.80;50.70;;;;;;5030915;28;20183;-67
2022/04/08 12:01:39;;;;;;;0.60;0.50;;;19.80;50.70;;;;;;4996888;28;20278;-67
2022/04/08 12:04:10;;;;;;;0.60;0.60;;;19.80;50.80;;;;;;4994706;28;20231;-67
2022/04/08 12:06:48;;;;;;;2.10;0.60;;;19.80;50.80;;;;;;5011117;28;20172;-67
2022/04/08 12:09:17;;;;;;;0.50;0.50;;;19.80;50.80;;;;;;5011068;28;20235;-68
2022/04/08 12:11:45;;;;;;;0.98;0.70;;;19.80;50.90;;;;;;5010985;28;20204;-68
2022/04/08 12:14:12;;;;;;;0.60;0.55;;;19.80;50.80;;;;;;5010901;28;20191;-68
2022/04/08 12:16:39;;;;;;;0.95;0.60;;;19.80;50.80;;;;;;5011096;28;20267;-68
2022/04/08 12:19:08;;;;;;;0.82;0.60;;;19.80;50.80;;;;;;5011317;28;20180;-68
2022/04/08 12:21:39;;;;;;;0.75;0.60;;;19.80;50.90;;;;;;4994310;28;20287;-68
2022/04/08 12:24:08;;;;;;;1.10;0.55;;;19.80;50.90;;;;;;5012039;28;20236;-68
2022/04/08 12:26:38;;;;;;;1.40;0.60;;;19.80;50.80;;;;;;5010903;28;20188;-68
2022/04/08 12:29:09;;;;;;;1.23;0.55;;;19.80;50.90;;;;;;5010958;28;20176;-68
2022/04/08 12:31:53;;;;;;;0.60;0.60;;;19.80;50.90;;;;;;5010778;28;20220;-68
2022/04/08 12:34:19;;;;;;;0.60;0.60;;;19.80;50.90;;;;;;5010797;28;20183;-67
2022/04/08 12:36:47;;;;;;;1.35;0.75;;;19.80;50.90;;;;;;5010818;28;20184;-67
2022/04/08 12:39:15;;;;;;;0.77;0.57;;;19.80;51.00;;;;;;5011950;28;20561;-67
2022/04/08 12:41:43;;;;;;;0.40;0.40;;;19.80;51.00;;;;;;5010634;28;20303;-67
2022/04/08 12:44:09;;;;;;;0.65;0.60;;;19.80;51.00;;;;;;5010667;28;20199;-68
2022/04/08 12:46:36;;;;;;;1.52;0.60;;;19.80;51.00;;;;;;5010969;28;20188;-67
2022/04/08 12:49:04;;;;;;;1.55;0.50;;;19.90;51.20;;;;;;5013700;28;20176;-67
2022/04/08 12:51:30;;;;;;;0.65;0.50;;;19.80;51.10;;;;;;4997517;28;20216;-68
2022/04/08 12:53:57;;;;;;;0.60;0.60;;;19.80;51.00;;;;;;5024696;28;20222;-68